Time;durP1;ratioP1;P1;durP2;ratioP2;P2;SDS_P1;SDS_P2;PMS_P1;PMS_P2;Temp;Humidity;BMP_temperature;BMP_pressure;BME280_temperature;BME280_humidity;BME280_pressure;Samples;Min_cycle;Max_cycle;Signal;HPM_P1;HPM_P2
2022/11/22 00:00:51;;;;;;;7.25;2.40;;;;;;;;;;4994309;28;20065;-76
2022/11/22 00:03:16;;;;;;;5.07;2.20;;;;;;;;;;4992567;28;20041;-76
2022/11/22 00:05:41;;;;;;;4.38;2.20;;;;;;;;;;4976397;28;20468;-76
2022/11/22 00:08:07;;;;;;;4.25;2.10;;;;;;;;;;5008868;28;20045;-78
2022/11/22 00:10:32;;;;;;;3.67;1.80;;;;;;;;;;4992727;28;20101;-77
2022/11/22 00:12:58;;;;;;;5.72;2.28;;;;;;;;;;4992399;28;20433;-76
2022/11/22 00:15:23;;;;;;;2.38;1.67;;;;;;;;;;4992588;28;20033;-76
2022/11/22 00:17:49;;;;;;;5.53;1.73;;;;;;;;;;4992811;28;20026;-76
2022/11/22 00:20:14;;;;;;;4.13;1.90;;;;;;;;;;5008774;28;20069;-77
2022/11/22 00:22:40;;;;;;;3.67;1.95;;;;;;;;;;4992713;28;20040;-76
2022/11/22 00:25:06;;;;;;;4.07;1.80;;;;;;;;;;5008601;28;20034;-77
2022/11/22 00:27:31;;;;;;;4.35;1.70;;;;;;;;;;4993303;28;20030;-76
2022/11/22 00:29:57;;;;;;;3.88;2.00;;;;;;;;;;5000363;28;20524;-77
2022/11/22 00:32:22;;;;;;;6.75;1.95;;;;;;;;;;4999399;28;20066;-76
2022/11/22 00:34:47;;;;;;;6.55;2.30;;;;;;;;;;4998770;28;20051;-76
2022/11/22 00:37:13;;;;;;;4.25;2.00;;;;;;;;;;4998817;28;20037;-77
2022/11/22 00:39:38;;;;;;;3.80;1.73;;;;;;;;;;4998945;28;20485;-76
2022/11/22 00:42:03;;;;;;;3.17;1.77;;;;;;;;;;4999358;28;20030;-77
2022/11/22 00:44:29;;;;;;;4.68;1.85;;;;;;;;;;4999040;28;20127;-77
2022/11/22 00:46:54;;;;;;;5.28;2.08;;;;;;;;;;4998794;28;20041;-77
2022/11/22 00:49:20;;;;;;;5.80;1.75;;;;;;;;;;4999024;28;20040;-76
2022/11/22 00:51:45;;;;;;;3.95;1.95;;;;;;;;;;4998670;28;20030;-77
2022/11/22 00:54:10;;;;;;;6.63;2.15;;;;;;;;;;5000234;28;20408;-77
2022/11/22 00:56:36;;;;;;;2.90;1.70;;;;;;;;;;4999876;28;20058;-77
2022/11/22 00:59:01;;;;;;;3.15;1.88;;;;;;;;;;4999047;28;20076;-77
2022/11/22 01:01:27;;;;;;;3.92;1.75;;;;;;;;;;4999813;28;20465;-77
2022/11/22 01:03:52;;;;;;;5.07;1.92;;;;;;;;;;5014779;28;20023;-77
2022/11/22 01:06:17;;;;;;;3.25;1.80;;;;;;;;;;4998443;28;20030;-77
2022/11/22 01:08:43;;;;;;;2.88;1.90;;;;;;;;;;4982175;28;20030;-77
2022/11/22 01:11:09;;;;;;;3.05;1.58;;;;;;;;;;5000428;28;20117;-76
2022/11/22 01:13:34;;;;;;;5.55;1.75;;;;;;;;;;4998536;28;20469;-77
2022/11/22 01:16:05;;;;;;;3.97;1.65;;;;;;;;;;5015089;28;20034;-77
2022/11/22 01:18:31;;;;;;;3.95;1.70;;;;;;;;;;4998929;28;20030;-76
2022/11/22 01:20:56;;;;;;;2.45;1.60;;;;;;;;;;4998888;28;20109;-76
2022/11/22 01:23:21;;;;;;;3.63;1.58;;;;;;;;;;4999702;28;20488;-76
2022/11/22 01:25:47;;;;;;;3.03;1.60;;;;;;;;;;4982040;28;20030;-76
2022/11/22 01:28:12;;;;;;;6.40;1.80;;;;;;;;;;4999722;28;20060;-76
2022/11/22 01:30:39;;;;;;;5.45;2.20;;;;;;;;;;5014712;28;20041;-76
2022/11/22 01:33:04;;;;;;;2.20;1.67;;;;;;;;;;4999688;28;20045;-75
2022/11/22 01:35:30;;;;;;;4.38;1.95;;;;;;;;;;4998185;28;20501;-76
2022/11/22 01:37:55;;;;;;;7.97;1.58;;;;;;;;;;4999939;28;20034;-76
2022/11/22 01:40:20;;;;;;;3.40;1.63;;;;;;;;;;4995424;28;20034;-77
2022/11/22 01:42:55;;;;;;;6.47;1.90;;;;;;;;;;4996764;28;20528;-77
2022/11/22 01:45:30;;;;;;;14.10;1.95;;;;;;;;;;4995334;28;20542;-76
2022/11/22 01:47:59;;;;;;;7.07;2.10;;;;;;;;;;4996607;28;20184;-77
2022/11/22 01:50:26;;;;;;;3.92;1.80;;;;;;;;;;4995114;28;20041;-76
2022/11/22 01:52:52;;;;;;;7.10;1.60;;;;;;;;;;4995558;28;20144;-77
2022/11/22 01:55:17;;;;;;;6.45;1.70;;;;;;;;;;4995069;28;20030;-77
2022/11/22 01:57:43;;;;;;;6.07;1.80;;;;;;;;;;4995852;28;20068;-76
2022/11/22 02:00:15;;;;;;;5.30;1.58;;;;;;;;;;4995419;28;20034;-77
2022/11/22 02:02:41;;;;;;;6.80;1.80;;;;;;;;;;4979359;28;20030;-76
2022/11/22 02:05:14;;;;;;;4.95;2.05;;;;;;;;;;4995204;28;20031;-77
2022/11/22 02:07:55;;;;;;;4.93;2.05;;;;;;;;;;4995035;28;20028;-77
2022/11/22 02:10:22;;;;;;;6.05;1.70;;;;;;;;;;4994749;28;20026;-76
2022/11/22 02:12:49;;;;;;;5.15;1.65;;;;;;;;;;4994684;28;20073;-77
2022/11/22 02:15:15;;;;;;;3.53;1.65;;;;;;;;;;4994700;28;20045;-76
2022/11/22 02:17:40;;;;;;;3.13;1.90;;;;;;;;;;4994715;28;20034;-77
2022/11/22 02:20:06;;;;;;;3.80;1.92;;;;;;;;;;4995073;28;20084;-76
2022/11/22 02:22:55;;;;;;;5.63;1.90;;;;;;;;;;4994623;28;20543;-76
2022/11/22 02:25:35;;;;;;;3.47;1.70;;;;;;;;;;4994339;28;20038;-77
2022/11/22 02:28:01;;;;;;;4.65;1.85;;;;;;;;;;4994306;28;20421;-76
2022/11/22 02:30:26;;;;;;;4.45;1.70;;;;;;;;;;4994604;28;20030;-77
2022/11/22 02:32:51;;;;;;;3.38;1.40;;;;;;;;;;4994802;28;20030;-76
2022/11/22 02:35:18;;;;;;;7.38;1.75;;;;;;;;;;4994123;28;20050;-76
2022/11/22 02:37:43;;;;;;;3.95;1.83;;;;;;;;;;4994677;28;20029;-76
2022/11/22 02:40:13;;;;;;;4.10;1.50;;;;;;;;;;4994401;28;20026;-76
2022/11/22 02:42:39;;;;;;;3.70;1.65;;;;;;;;;;4994561;28;20030;-77
2022/11/22 02:45:05;;;;;;;4.78;1.40;;;;;;;;;;5010410;28;20125;-76
2022/11/22 02:47:30;;;;;;;3.25;1.73;;;;;;;;;;4994043;28;20121;-77
2022/11/22 02:49:55;;;;;;;3.72;1.63;;;;;;;;;;5010355;28;20034;-76
2022/11/22 02:52:21;;;;;;;2.78;1.55;;;;;;;;;;4995216;28;20509;-77
2022/11/22 02:54:46;;;;;;;5.93;1.80;;;;;;;;;;4995585;28;20100;-77
2022/11/22 02:57:12;;;;;;;5.38;2.10;;;;;;;;;;4994281;28;20354;-77
2022/11/22 02:59:37;;;;;;;3.35;1.67;;;;;;;;;;4995169;28;20401;-76
2022/11/22 03:02:02;;;;;;;3.45;1.73;;;;;;;;;;4993786;28;20105;-76
2022/11/22 03:04:28;;;;;;;3.95;1.70;;;;;;;;;;4993879;28;20381;-76
2022/11/22 03:06:55;;;;;;;6.50;1.73;;;;;;;;;;4995202;28;20027;-77
2022/11/22 03:09:21;;;;;;;3.17;1.67;;;;;;;;;;4993687;28;20026;-78
2022/11/22 03:11:47;;;;;;;4.18;1.50;;;;;;;;;;4993715;28;20046;-78
2022/11/22 03:14:14;;;;;;;4.55;1.70;;;;;;;;;;5009735;28;20031;-77
2022/11/22 03:16:40;;;;;;;3.92;1.50;;;;;;;;;;4977509;28;20100;-77
2022/11/22 03:19:06;;;;;;;3.67;1.73;;;;;;;;;;4993655;28;20034;-76
2022/11/22 03:21:31;;;;;;;3.55;1.65;;;;;;;;;;4993868;28;20397;-77
2022/11/22 03:23:57;;;;;;;4.55;1.77;;;;;;;;;;4994762;28;20393;-77
2022/11/22 03:26:22;;;;;;;3.80;1.95;;;;;;;;;;4993208;28;20404;-77
2022/11/22 03:28:47;;;;;;;5.22;1.80;;;;;;;;;;4993534;28;20033;-77
2022/11/22 03:31:13;;;;;;;3.35;1.60;;;;;;;;;;5009509;28;20044;-77
2022/11/22 03:33:38;;;;;;;4.95;1.88;;;;;;;;;;4994590;28;20026;-76
2022/11/22 03:36:04;;;;;;;5.15;2.25;;;;;;;;;;4993051;28;20046;-76
2022/11/22 03:38:29;;;;;;;3.70;1.80;;;;;;;;;;5009367;28;20108;-77
2022/11/22 03:40:55;;;;;;;6.28;1.98;;;;;;;;;;4992991;28;20409;-77
2022/11/22 03:43:20;;;;;;;4.63;2.03;;;;;;;;;;4993156;28;20037;-77
2022/11/22 03:45:46;;;;;;;4.07;1.88;;;;;;;;;;4993567;28;20088;-77
2022/11/22 03:48:12;;;;;;;4.38;1.70;;;;;;;;;;4993195;28;20053;-77
2022/11/22 03:50:37;;;;;;;8.82;2.30;;;;;;;;;;4992905;28;20038;-77
2022/11/22 03:53:03;;;;;;;4.38;2.03;;;;;;;;;;5008997;28;20030;-77
2022/11/22 03:55:28;;;;;;;6.97;2.05;;;;;;;;;;4993173;28;20497;-77
2022/11/22 03:57:53;;;;;;;4.80;1.80;;;;;;;;;;4992746;28;20041;-77
2022/11/22 04:00:19;;;;;;;5.60;2.30;;;;;;;;;;4992776;28;20045;-77
2022/11/22 04:02:44;;;;;;;5.07;2.00;;;;;;;;;;4993434;28;20054;-77
2022/11/22 04:05:10;;;;;;;5.15;1.88;;;;;;;;;;4992436;28;20508;-77
2022/11/22 04:07:35;;;;;;;5.38;2.33;;;;;;;;;;4992700;28;20397;-77
2022/11/22 04:10:00;;;;;;;5.78;1.90;;;;;;;;;;4994073;28;20034;-76
2022/11/22 04:12:28;;;;;;;12.32;1.92;;;;;;;;;;4993786;28;20089;-76
2022/11/22 04:15:05;;;;;;;7.05;2.03;;;;;;;;;;4993727;28;20033;-76
2022/11/22 04:17:40;;;;;;;7.07;2.10;;;;;;;;;;4992465;28;20036;-76
2022/11/22 04:23:05;;;;;;;8.20;2.70;;;;;;;;;;4993600;28;20037;-76
2022/11/22 04:25:32;;;;;;;6.95;1.90;;;;;;;;;;4992237;28;20081;-77
2022/11/22 04:27:58;;;;;;;5.82;1.95;;;;;;;;;;4993594;28;20026;-77
2022/11/22 04:32:44;;;;;;;6.30;2.17;;;;;;;;;;4976133;28;20045;-76
2022/11/22 04:33:10;;;;;;;6.75;2.05;;;;;;;;;;4992570;28;20037;-76
2022/11/22 04:35:36;;;;;;;3.70;1.70;;;;;;;;;;4992361;28;20054;-77
2022/11/22 04:38:01;;;;;;;4.68;1.80;;;;;;;;;;4992399;28;20041;-76
2022/11/22 04:40:27;;;;;;;6.18;2.10;;;;;;;;;;5008588;28;20041;-77
2022/11/22 04:45:36;;;;;;;5.57;1.80;;;;;;;;;;4993420;28;20401;-76
2022/11/22 04:48:01;;;;;;;6.88;1.67;;;;;;;;;;4993397;28;20031;-76
2022/11/22 04:53:15;;;;;;;5.68;1.83;;;;;;;;;;4992926;28;20045;-77
2022/11/22 04:55:43;;;;;;;3.38;1.60;;;;;;;;;;4992050;28;20389;-77
2022/11/22 04:58:08;;;;;;;6.95;2.10;;;;;;;;;;4993626;28;20030;-77
2022/11/22 05:00:34;;;;;;;8.35;2.25;;;;;;;;;;4992128;28;20037;-76
2022/11/22 05:02:59;;;;;;;5.88;1.77;;;;;;;;;;4994383;28;20034;-76
2022/11/22 05:05:25;;;;;;;5.18;1.80;;;;;;;;;;4992845;28;20037;-77
2022/11/22 05:07:51;;;;;;;7.28;1.40;;;;;;;;;;5009211;28;20397;-77
2022/11/22 05:10:16;;;;;;;3.42;1.45;;;;;;;;;;4992606;28;20036;-77
2022/11/22 05:12:42;;;;;;;6.85;1.60;;;;;;;;;;4992747;28;20053;-76
2022/11/22 05:15:09;;;;;;;4.55;1.75;;;;;;;;;;4993607;28;20033;-76
2022/11/22 05:17:35;;;;;;;5.97;1.80;;;;;;;;;;4996374;28;20065;-76
2022/11/22 05:20:00;;;;;;;6.38;1.80;;;;;;;;;;4997415;28;20108;-76
2022/11/22 05:25:10;;;;;;;8.60;1.88;;;;;;;;;;4996057;28;20625;-76
2022/11/22 05:27:36;;;;;;;6.53;1.88;;;;;;;;;;5001983;28;20066;-76
2022/11/22 05:30:01;;;;;;;13.25;2.30;;;;;;;;;;4995745;28;20389;-76
2022/11/22 05:32:29;;;;;;;8.70;2.50;;;;;;;;;;4995628;28;20496;-77
2022/11/22 05:34:54;;;;;;;12.48;2.20;;;;;;;;;;4996665;28;20157;-76
2022/11/22 05:37:21;;;;;;;9.32;1.70;;;;;;;;;;4995428;28;20066;-77
2022/11/22 05:39:46;;;;;;;8.27;2.15;;;;;;;;;;4996359;28;20085;-77
2022/11/22 05:42:12;;;;;;;11.00;2.40;;;;;;;;;;4994949;28;20030;-76
2022/11/22 05:44:37;;;;;;;6.97;2.22;;;;;;;;;;4978885;28;20066;-76
2022/11/22 05:47:02;;;;;;;9.05;2.53;;;;;;;;;;4997552;28;20030;-76
2022/11/22 05:49:28;;;;;;;9.23;2.10;;;;;;;;;;4979922;28;20034;-77
2022/11/22 05:51:53;;;;;;;22.83;3.38;;;;;;;;;;5012103;28;20125;-76
2022/11/22 05:54:18;;;;;;;11.32;2.72;;;;;;;;;;4979391;28;20038;-76
2022/11/22 05:56:44;;;;;;;18.73;4.25;;;;;;;;;;5012648;28;20092;-76
2022/11/22 05:59:12;;;;;;;20.13;4.45;;;;;;;;;;4996762;28;20042;-76
2022/11/22 06:01:38;;;;;;;13.10;3.40;;;;;;;;;;5005290;28;20018;-76
2022/11/22 06:04:03;;;;;;;47.20;8.25;;;;;;;;;;5013269;28;20049;-75
2022/11/22 06:06:29;;;;;;;37.28;5.88;;;;;;;;;;4999685;28;20117;-75
2022/11/22 06:08:54;;;;;;;36.63;5.47;;;;;;;;;;4980010;28;20117;-75
2022/11/22 06:11:22;;;;;;;24.75;4.93;;;;;;;;;;4996831;28;20038;-75
2022/11/22 06:13:50;;;;;;;21.77;4.25;;;;;;;;;;4996305;28;20014;-75
2022/11/22 06:16:18;;;;;;;23.70;4.38;;;;;;;;;;5012141;28;20022;-75
2022/11/22 06:18:44;;;;;;;18.83;4.00;;;;;;;;;;4997246;28;20089;-75
2022/11/22 06:21:12;;;;;;;21.02;4.00;;;;;;;;;;4979602;28;20038;-75
2022/11/22 06:23:37;;;;;;;16.15;3.80;;;;;;;;;;4995422;28;20033;-75
2022/11/22 06:26:04;;;;;;;16.95;3.33;;;;;;;;;;4996869;28;20397;-76
2022/11/22 06:28:32;;;;;;;17.17;3.30;;;;;;;;;;5011306;28;20092;-75
2022/11/22 06:31:09;;;;;;;12.93;3.35;;;;;;;;;;4997341;28;20469;-76
2022/11/22 06:33:35;;;;;;;23.88;3.22;;;;;;;;;;4995671;28;20054;-76
2022/11/22 06:36:14;;;;;;;15.68;2.75;;;;;;;;;;4996392;28;20054;-75
2022/11/22 06:38:41;;;;;;;7.88;2.65;;;;;;;;;;4995328;28;20137;-75
2022/11/22 06:41:09;;;;;;;12.50;3.08;;;;;;;;;;5011108;28;20097;-75
2022/11/22 06:43:35;;;;;;;10.35;2.67;;;;;;;;;;4994066;28;20060;-75
2022/11/22 06:46:02;;;;;;;10.15;2.45;;;;;;;;;;4994284;28;20034;-75
2022/11/22 06:48:37;;;;;;;8.40;2.75;;;;;;;;;;4994386;28;20088;-77
2022/11/22 06:51:09;;;;;;;15.82;2.42;;;;;;;;;;4994734;28;20030;-76
2022/11/22 06:53:35;;;;;;;9.73;2.42;;;;;;;;;;4994200;28;20053;-76
2022/11/22 06:56:12;;;;;;;11.02;2.30;;;;;;;;;;4977771;28;20046;-76
2022/11/22 06:58:38;;;;;;;7.78;2.53;;;;;;;;;;4993844;28;20113;-77
2022/11/22 07:01:06;;;;;;;13.27;2.38;;;;;;;;;;4977534;28;20605;-77
2022/11/22 07:03:33;;;;;;;6.75;2.20;;;;;;;;;;4994178;28;20049;-77
2022/11/22 07:05:59;;;;;;;7.50;2.13;;;;;;;;;;4993976;28;20037;-76
2022/11/22 07:08:24;;;;;;;6.43;2.10;;;;;;;;;;4994318;28;20030;-76
2022/11/22 07:10:49;;;;;;;7.60;2.50;;;;;;;;;;4995147;28;20494;-76
2022/11/22 07:13:15;;;;;;;9.95;2.38;;;;;;;;;;4978879;28;20034;-77
2022/11/22 07:15:40;;;;;;;8.63;2.45;;;;;;;;;;5010336;28;20044;-77
2022/11/22 07:18:05;;;;;;;8.55;2.08;;;;;;;;;;4995082;28;20440;-77
2022/11/22 07:20:31;;;;;;;9.63;1.98;;;;;;;;;;4994844;28;20030;-76
2022/11/22 07:22:56;;;;;;;7.03;1.85;;;;;;;;;;4976969;28;20432;-77
2022/11/22 07:25:22;;;;;;;8.23;2.05;;;;;;;;;;4994121;28;20074;-77
2022/11/22 07:27:47;;;;;;;8.48;2.05;;;;;;;;;;4995192;28;20031;-76
2022/11/22 07:30:13;;;;;;;9.77;2.05;;;;;;;;;;4993275;28;20077;-76
2022/11/22 07:32:38;;;;;;;6.22;1.95;;;;;;;;;;4994485;28;20397;-75
2022/11/22 07:35:04;;;;;;;8.05;2.03;;;;;;;;;;4992755;28;20033;-76
2022/11/22 07:37:30;;;;;;;6.20;2.15;;;;;;;;;;4992464;28;20041;-76
2022/11/22 07:39:56;;;;;;;6.25;2.22;;;;;;;;;;4976851;28;20027;-76
2022/11/22 07:42:21;;;;;;;14.55;2.67;;;;;;;;;;4993025;28;20038;-76
2022/11/22 07:44:46;;;;;;;4.85;1.75;;;;;;;;;;4993048;28;20022;-76
2022/11/22 07:47:12;;;;;;;8.70;2.30;;;;;;;;;;4994864;28;20052;-76
2022/11/22 07:49:38;;;;;;;6.40;1.83;;;;;;;;;;4993326;28;20038;-76
2022/11/22 07:52:04;;;;;;;7.00;2.25;;;;;;;;;;4993561;28;20026;-76
2022/11/22 07:54:29;;;;;;;8.50;1.77;;;;;;;;;;4994845;28;20033;-78
2022/11/22 07:56:55;;;;;;;5.63;1.90;;;;;;;;;;4994568;28;20061;-79
2022/11/22 07:59:21;;;;;;;6.60;1.70;;;;;;;;;;4994445;28;20388;-77
2022/11/22 08:01:46;;;;;;;11.27;2.15;;;;;;;;;;5016566;28;20037;-76
2022/11/22 08:04:12;;;;;;;14.05;2.20;;;;;;;;;;5021775;28;20423;-76
2022/11/22 08:06:37;;;;;;;4.85;1.95;;;;;;;;;;5032134;28;20052;-76
2022/11/22 08:09:02;;;;;;;5.32;1.75;;;;;;;;;;5047898;28;20502;-77
2022/11/22 08:11:28;;;;;;;10.68;1.95;;;;;;;;;;5032583;28;20040;-76
2022/11/22 08:13:53;;;;;;;15.63;2.03;;;;;;;;;;5048344;28;20112;-77
2022/11/22 08:16:18;;;;;;;7.00;2.10;;;;;;;;;;5047487;28;20163;-76
2022/11/22 08:18:48;;;;;;;9.52;1.63;;;;;;;;;;5047923;28;20030;-76
2022/11/22 08:21:14;;;;;;;6.35;1.70;;;;;;;;;;5047932;28;20055;-77
2022/11/22 08:23:41;;;;;;;4.00;1.67;;;;;;;;;;5047754;28;20033;-77
2022/11/22 08:26:08;;;;;;;5.78;1.70;;;;;;;;;;5047789;28;20025;-76
2022/11/22 08:28:34;;;;;;;8.32;1.98;;;;;;;;;;5047819;28;20104;-77
2022/11/22 08:31:06;;;;;;;13.48;2.00;;;;;;;;;;5032406;28;20132;-77
2022/11/22 08:33:31;;;;;;;7.65;1.77;;;;;;;;;;5031269;28;20434;-77
2022/11/22 08:35:57;;;;;;;6.20;1.75;;;;;;;;;;5032196;28;20144;-78
2022/11/22 08:38:22;;;;;;;6.32;1.65;;;;;;;;;;5032550;28;20140;-77
2022/11/22 08:40:48;;;;;;;3.58;1.50;;;;;;;;;;5047772;28;20400;-77
2022/11/22 08:43:13;;;;;;;5.70;1.63;;;;;;;;;;5032741;28;20507;-77
2022/11/22 08:45:38;;;;;;;7.63;1.83;;;;;;;;;;5030729;28;20391;-77
2022/11/22 08:48:04;;;;;;;7.28;1.80;;;;;;;;;;5030865;28;20500;-76
2022/11/22 08:50:29;;;;;;;5.13;1.50;;;;;;;;;;5050990;28;20052;-77
2022/11/22 08:52:55;;;;;;;5.03;1.58;;;;;;;;;;5051682;28;20048;-76
2022/11/22 08:55:20;;;;;;;6.30;2.05;;;;;;;;;;5034899;28;20147;-76
2022/11/22 08:57:45;;;;;;;4.85;1.67;;;;;;;;;;5036139;28;20029;-76
2022/11/22 09:00:11;;;;;;;5.55;1.60;;;;;;;;;;5034953;28;20025;-76
2022/11/22 09:02:36;;;;;;;9.38;1.92;;;;;;;;;;5051741;28;20029;-76
2022/11/22 09:05:02;;;;;;;5.30;1.60;;;;;;;;;;5034392;28;20099;-76
2022/11/22 09:07:28;;;;;;;3.95;1.67;;;;;;;;;;5036261;28;20033;-78
2022/11/22 09:09:54;;;;;;;3.67;1.77;;;;;;;;;;5051734;28;20030;-77
2022/11/22 09:12:19;;;;;;;6.03;1.90;;;;;;;;;;5051844;28;20376;-77
2022/11/22 09:14:45;;;;;;;6.47;1.60;;;;;;;;;;5052069;28;20441;-77
2022/11/22 09:17:10;;;;;;;6.90;1.90;;;;;;;;;;5051397;28;20076;-77
2022/11/22 09:19:35;;;;;;;3.88;1.60;;;;;;;;;;5036297;28;20029;-77
2022/11/22 09:22:01;;;;;;;6.15;1.77;;;;;;;;;;5036446;28;20060;-76
2022/11/22 09:24:26;;;;;;;6.97;2.17;;;;;;;;;;5035337;28;20472;-76
2022/11/22 09:26:51;;;;;;;8.57;1.55;;;;;;;;;;5050981;28;20103;-75
2022/11/22 09:29:17;;;;;;;4.75;1.77;;;;;;;;;;5034769;28;20029;-77
2022/11/22 09:31:42;;;;;;;6.57;1.70;;;;;;;;;;5036160;28;20548;-76
2022/11/22 09:34:08;;;;;;;5.18;1.95;;;;;;;;;;5051264;28;20026;-76
2022/11/22 09:36:33;;;;;;;5.45;1.60;;;;;;;;;;5017592;28;20420;-77
2022/11/22 09:38:59;;;;;;;4.43;1.45;;;;;;;;;;5034197;28;20053;-76
2022/11/22 09:41:52;;;;;;;4.32;1.50;;;;;;;;;;5051094;28;20156;-76
2022/11/22 09:44:28;;;;;;;6.40;1.90;;;;;;;;;;5034412;28;20029;-77
2022/11/22 09:46:59;;;;;;;5.90;1.85;;;;;;;;;;5035524;28;20167;-76
2022/11/22 09:49:28;;;;;;;5.22;1.73;;;;;;;;;;5051048;28;20022;-76
2022/11/22 09:52:02;;;;;;;6.13;1.80;;;;;;;;;;5051070;28;20021;-77
2022/11/22 09:54:34;;;;;;;2.65;1.30;;;;;;;;;;5050953;28;20480;-77
2022/11/22 09:57:03;;;;;;;6.05;1.65;;;;;;;;;;5049293;28;20025;-77
2022/11/22 09:59:33;;;;;;;4.32;1.48;;;;;;;;;;5043075;28;20056;-78
2022/11/22 10:02:40;;;;;;;5.53;1.65;;;;;;;;;;5014691;28;20522;-77
2022/11/22 10:05:15;;;;;;;8.13;1.60;;;;;;;;;;5013201;28;20045;-75
2022/11/22 10:07:44;;;;;;;4.82;1.52;;;;;;;;;;5014388;28;20504;-77
2022/11/22 10:10:31;;;;;;;3.58;1.60;;;;;;;;;;5014202;28;20021;-76
2022/11/22 10:13:03;;;;;;;5.38;1.60;;;;;;;;;;5014301;28;20033;-77
2022/11/22 10:15:56;;;;;;;3.13;1.38;;;;;;;;;;4997858;28;20026;-75
2022/11/22 10:18:28;;;;;;;5.55;1.50;;;;;;;;;;5015139;28;20030;-76
2022/11/22 10:20:54;;;;;;;4.57;1.50;;;;;;;;;;5014825;28;20037;-76
2022/11/22 10:23:24;;;;;;;6.65;1.52;;;;;;;;;;5014566;28;20030;-76
2022/11/22 10:26:35;;;;;;;4.70;1.50;;;;;;;;;;5010678;28;20033;-76
2022/11/22 10:29:10;;;;;;;4.78;1.70;;;;;;;;;;4974111;28;20101;-76
2022/11/22 10:31:58;;;;;;;4.68;1.48;;;;;;;;;;4973627;28;20031;-76
2022/11/22 10:34:52;;;;;;;6.10;1.55;;;;;;;;;;4955560;28;20442;-76
2022/11/22 10:37:38;;;;;;;4.75;1.48;;;;;;;;;;4941463;28;20051;-76
2022/11/22 10:40:14;;;;;;;6.05;1.80;;;;;;;;;;4941592;28;20034;-76
2022/11/22 10:43:05;;;;;;;5.00;1.67;;;;;;;;;;4973810;28;20029;-76
2022/11/22 10:45:36;;;;;;;6.40;1.73;;;;;;;;;;4974571;28;20030;-76
2022/11/22 10:48:41;;;;;;;4.75;1.77;;;;;;;;;;4942028;28;20043;-76
2022/11/22 10:51:12;;;;;;;6.93;2.13;;;;;;;;;;4942020;28;20027;-76
2022/11/22 10:53:46;;;;;;;8.48;1.83;;;;;;;;;;4974234;28;20058;-76
2022/11/22 10:56:21;;;;;;;3.90;1.38;;;;;;;;;;4974082;28;20034;-78
2022/11/22 10:59:14;;;;;;;4.03;1.58;;;;;;;;;;4961621;28;20031;-78
2022/11/22 11:01:58;;;;;;;5.18;1.42;;;;;;;;;;5014719;28;20026;-77
2022/11/22 11:04:28;;;;;;;6.53;1.50;;;;;;;;;;5015064;28;20053;-76
2022/11/22 11:06:57;;;;;;;4.65;1.73;;;;;;;;;;5013628;28;20029;-76
2022/11/22 11:09:34;;;;;;;4.10;1.50;;;;;;;;;;5014501;28;20050;-76
2022/11/22 11:12:01;;;;;;;4.72;1.50;;;;;;;;;;5014461;28;20037;-76
2022/11/22 11:14:35;;;;;;;7.82;1.55;;;;;;;;;;5013238;28;20041;-76
2022/11/22 11:17:01;;;;;;;7.03;1.60;;;;;;;;;;4996915;28;20033;-76
2022/11/22 11:19:36;;;;;;;5.65;1.67;;;;;;;;;;5013199;28;20026;-76
2022/11/22 11:22:07;;;;;;;4.55;1.40;;;;;;;;;;4996408;28;20026;-76
2022/11/22 11:24:35;;;;;;;11.32;1.70;;;;;;;;;;5013038;28;20038;-76
2022/11/22 11:27:10;;;;;;;11.60;1.60;;;;;;;;;;5013440;28;20430;-76
2022/11/22 11:29:37;;;;;;;12.68;1.20;;;;;;;;;;4997568;28;20038;-76
2022/11/22 11:32:07;;;;;;;3.50;1.60;;;;;;;;;;4997032;28;20026;-76
2022/11/22 11:34:32;;;;;;;9.82;1.75;;;;;;;;;;5015816;28;20084;-77
2022/11/22 11:36:58;;;;;;;4.13;1.60;;;;;;;;;;5014192;28;20054;-77
2022/11/22 11:39:29;;;;;;;5.13;1.58;;;;;;;;;;5013229;28;20037;-76
2022/11/22 11:41:55;;;;;;;8.73;1.55;;;;;;;;;;5012682;28;20026;-77
2022/11/22 11:44:34;;;;;;;8.02;1.80;;;;;;;;;;4996291;28;20045;-77
2022/11/22 11:47:00;;;;;;;4.30;1.45;;;;;;;;;;4996465;28;20021;-76
2022/11/22 11:49:28;;;;;;;4.57;1.45;;;;;;;;;;5012602;28;20026;-76
2022/11/22 11:51:58;;;;;;;5.50;1.25;;;;;;;;;;5012870;28;20140;-76
2022/11/22 11:54:39;;;;;;;3.88;1.48;;;;;;;;;;4996404;28;20461;-76
2022/11/22 11:57:13;;;;;;;4.15;1.48;;;;;;;;;;5013044;28;20038;-76
2022/11/22 11:59:38;;;;;;;5.68;1.70;;;;;;;;;;5012821;28;20030;-76
2022/11/22 12:02:09;;;;;;;4.68;1.50;;;;;;;;;;5012319;28;20499;-77
2022/11/22 12:04:44;;;;;;;8.80;1.90;;;;;;;;;;5013687;28;20030;-77
2022/11/22 12:07:25;;;;;;;3.75;1.25;;;;;;;;;;5012126;28;20088;-77
2022/11/22 12:09:53;;;;;;;3.60;1.30;;;;;;;;;;5014027;28;20048;-78
2022/11/22 12:12:50;;;;;;;4.47;1.52;;;;;;;;;;5012416;28;20378;-78
2022/11/22 12:15:35;;;;;;;3.90;1.20;;;;;;;;;;4995830;28;20025;-78
2022/11/22 12:18:38;;;;;;;6.45;1.55;;;;;;;;;;5012225;28;20056;-77
2022/11/22 12:21:28;;;;;;;13.10;1.60;;;;;;;;;;5013588;28;20101;-77
2022/11/22 12:24:16;;;;;;;7.45;1.98;;;;;;;;;;5011977;28;20061;-77
2022/11/22 12:26:41;;;;;;;5.15;1.42;;;;;;;;;;5012386;28;20428;-77
2022/11/22 12:29:10;;;;;;;3.75;1.38;;;;;;;;;;5012217;28;20034;-77
2022/11/22 12:31:36;;;;;;;3.55;1.40;;;;;;;;;;5013351;28;20113;-77
2022/11/22 12:34:06;;;;;;;3.90;1.38;;;;;;;;;;5011161;28;20022;-77
2022/11/22 12:36:46;;;;;;;3.53;1.30;;;;;;;;;;5011543;28;20041;-77
2022/11/22 12:39:16;;;;;;;3.67;1.20;;;;;;;;;;5011568;28;20366;-77
2022/11/22 12:41:43;;;;;;;4.65;1.20;;;;;;;;;;5011568;28;20026;-77
2022/11/22 12:44:17;;;;;;;8.07;1.40;;;;;;;;;;4995084;28;20060;-77
2022/11/22 12:46:50;;;;;;;3.47;1.02;;;;;;;;;;5012626;28;20037;-77
2022/11/22 12:49:55;;;;;;;6.20;1.40;;;;;;;;;;5010935;28;20048;-77
2022/11/22 12:52:36;;;;;;;5.68;1.30;;;;;;;;;;5003643;28;20516;-78
2022/11/22 12:55:11;;;;;;;6.22;1.50;;;;;;;;;;5011114;28;20461;-78
2022/11/22 12:57:42;;;;;;;5.55;1.50;;;;;;;;;;5010946;28;20097;-78
2022/11/22 13:00:16;;;;;;;3.47;1.50;;;;;;;;;;4994636;28;20068;-77
2022/11/22 13:02:50;;;;;;;15.50;1.60;;;;;;;;;;4993813;28;20058;-77
2022/11/22 13:05:33;;;;;;;2.72;1.42;;;;;;;;;;5010436;28;20385;-77
2022/11/22 13:08:13;;;;;;;5.32;1.42;;;;;;;;;;5010304;28;20177;-78
2022/11/22 13:11:12;;;;;;;5.78;1.30;;;;;;;;;;5010279;28;20476;-78
2022/11/22 13:13:41;;;;;;;5.22;1.30;;;;;;;;;;4991292;28;20437;-78
2022/11/22 13:16:09;;;;;;;10.07;1.77;;;;;;;;;;5011491;28;20037;-78
2022/11/22 13:18:50;;;;;;;3.92;1.25;;;;;;;;;;5011373;28;20022;-78
2022/11/22 13:22:00;;;;;;;5.97;1.25;;;;;;;;;;5011397;28;20112;-78
2022/11/22 13:25:03;;;;;;;4.47;1.40;;;;;;;;;;4995853;28;20400;-79
2022/11/22 13:27:43;;;;;;;6.00;1.45;;;;;;;;;;5011317;28;20032;-78
2022/11/22 13:30:21;;;;;;;1.90;1.20;;;;;;;;;;5012302;28;20033;-79
2022/11/22 13:32:49;;;;;;;2.80;1.30;;;;;;;;;;5012601;28;20025;-79
2022/11/22 13:35:15;;;;;;;7.68;1.25;;;;;;;;;;4995177;28;20103;-79
2022/11/22 13:37:43;;;;;;;6.68;1.30;;;;;;;;;;5014273;28;20370;-80
2022/11/22 13:40:14;;;;;;;4.82;1.30;;;;;;;;;;4998053;28;20049;-79
2022/11/22 13:42:40;;;;;;;4.03;1.38;;;;;;;;;;5015680;28;20021;-77
2022/11/22 13:45:21;;;;;;;5.93;1.30;;;;;;;;;;5014372;28;20117;-77
2022/11/22 13:47:47;;;;;;;2.80;1.08;;;;;;;;;;4997715;28;20022;-77
2022/11/22 13:50:40;;;;;;;1.75;1.00;;;;;;;;;;5014298;28;20030;-77
2022/11/22 13:53:21;;;;;;;5.13;1.25;;;;;;;;;;5015531;28;20033;-78
2022/11/22 13:55:47;;;;;;;6.93;1.23;;;;;;;;;;4997607;28;20033;-78
2022/11/22 13:58:24;;;;;;;10.05;1.38;;;;;;;;;;5013996;28;20034;-78
2022/11/22 14:00:54;;;;;;;2.35;1.40;;;;;;;;;;5015131;28;20097;-78
2022/11/22 14:03:20;;;;;;;4.93;1.13;;;;;;;;;;4998336;28;20026;-79
2022/11/22 14:05:50;;;;;;;5.63;1.08;;;;;;;;;;5014651;28;20022;-78
2022/11/22 14:08:34;;;;;;;2.83;1.13;;;;;;;;;;5014343;28;20056;-78
2022/11/22 14:11:12;;;;;;;2.55;1.13;;;;;;;;;;5014194;28;20033;-79
2022/11/22 14:13:51;;;;;;;3.65;1.20;;;;;;;;;;4998107;28;20057;-78
2022/11/22 14:16:38;;;;;;;4.53;1.02;;;;;;;;;;5014381;28;20053;-78
2022/11/22 14:19:26;;;;;;;4.45;1.10;;;;;;;;;;5015730;28;20036;-78
2022/11/22 14:22:16;;;;;;;2.33;1.00;;;;;;;;;;4997693;28;20026;-78
2022/11/22 14:25:03;;;;;;;1.95;0.98;;;;;;;;;;5013670;28;20034;-78
2022/11/22 14:27:50;;;;;;;3.08;1.30;;;;;;;;;;5014358;28;20053;-78
2022/11/22 14:30:18;;;;;;;14.48;1.17;;;;;;;;;;5014500;28;20029;-78
2022/11/22 14:32:49;;;;;;;2.78;1.10;;;;;;;;;;5014533;28;20026;-78
2022/11/22 14:35:19;;;;;;;3.90;1.20;;;;;;;;;;5014739;28;20022;-78
2022/11/22 14:37:55;;;;;;;6.18;1.10;;;;;;;;;;5015156;28;20030;-78
2022/11/22 14:40:47;;;;;;;5.30;1.30;;;;;;;;;;5013802;28;20089;-78
2022/11/22 14:43:48;;;;;;;1.55;0.80;;;;;;;;;;5012464;28;20069;-78
2022/11/22 14:46:19;;;;;;;3.20;1.00;;;;;;;;;;4973722;28;20050;-78
2022/11/22 14:49:05;;;;;;;2.47;0.90;;;;;;;;;;4973645;28;20053;-78
2022/11/22 14:51:32;;;;;;;1.48;0.98;;;;;;;;;;4973316;28;20106;-78
2022/11/22 14:53:58;;;;;;;3.17;1.10;;;;;;;;;;4941332;28;20518;-78
2022/11/22 14:56:35;;;;;;;4.10;1.00;;;;;;;;;;4957446;28;20031;-78
2022/11/22 14:59:32;;;;;;;5.47;1.10;;;;;;;;;;4957985;28;20062;-78
2022/11/22 15:02:45;;;;;;;1.10;0.90;;;;;;;;;;4957903;28;20066;-78
2022/11/22 15:05:42;;;;;;;1.77;0.90;;;;;;;;;;4928663;28;20038;-78
2022/11/22 15:08:44;;;;;;;3.40;1.25;;;;;;;;;;4958401;28;20046;-78
2022/11/22 15:11:27;;;;;;;2.55;0.93;;;;;;;;;;4957483;28;20030;-78